sensor_id;sensor_type;location;lat;lon;timestamp;temperature;humidity
2002;DHT22;1003;48.002;7.788;2023-04-23T00:01:26;12.90;99.90
2002;DHT22;1003;48.002;7.788;2023-04-23T00:03:55;12.90;99.90
2002;DHT22;1003;48.002;7.788;2023-04-23T00:06:25;12.90;99.90
2002;DHT22;1003;48.002;7.788;2023-04-23T00:08:56;12.90;99.90
2002;DHT22;1003;48.002;7.788;2023-04-23T00:11:26;13.00;99.90
2002;DHT22;1003;48.002;7.788;2023-04-23T00:13:54;12.90;99.90
2002;DHT22;1003;48.002;7.788;2023-04-23T00:16:22;12.90;99.90
2002;DHT22;1003;48.002;7.788;2023-04-23T00:18:49;12.80;99.90
2002;DHT22;1003;48.002;7.788;2023-04-23T00:21:16;12.80;99.90
2002;DHT22;1003;48.002;7.788;2023-04-23T00:23:45;12.80;99.90
2002;DHT22;1003;48.002;7.788;2023-04-23T00:26:12;12.90;99.90
2002;DHT22;1003;48.002;7.788;2023-04-23T00:28:39;12.80;99.90
2002;DHT22;1003;48.002;7.788;2023-04-23T00:31:06;12.80;99.90
2002;DHT22;1003;48.002;7.788;2023-04-23T00:33:33;12.80;99.90
2002;DHT22;1003;48.002;7.788;2023-04-23T00:36:01;12.80;99.90
2002;DHT22;1003;48.002;7.788;2023-04-23T00:38:29;12.80;99.90
2002;DHT22;1003;48.002;7.788;2023-04-23T00:40:57;12.70;99.90
2002;DHT22;1003;48.002;7.788;2023-04-23T00:43:24;12.80;99.90
2002;DHT22;1003;48.002;7.788;2023-04-23T00:45:51;12.70;99.90
2002;DHT22;1003;48.002;7.788;2023-04-23T00:48:19;12.50;99.90
2002;DHT22;1003;48.002;7.788;2023-04-23T00:50:47;12.40;99.90
2002;DHT22;1003;48.002;7.788;2023-04-23T00:53:14;12.40;99.90
2002;DHT22;1003;48.002;7.788;2023-04-23T00:55:41;12.30;99.90
2002;DHT22;1003;48.002;7.788;2023-04-23T00:58:10;12.30;99.90
2002;DHT22;1003;48.002;7.788;2023-04-23T01:00:43;12.20;99.90
2002;DHT22;1003;48.002;7.788;2023-04-23T01:03:13;12.20;99.90
2002;DHT22;1003;48.002;7.788;2023-04-23T01:05:43;12.30;99.90
2002;DHT22;1003;48.002;7.788;2023-04-23T01:08:13;12.30;99.90
2002;DHT22;1003;48.002;7.788;2023-04-23T01:10:43;12.20;99.90
2002;DHT22;1003;48.002;7.788;2023-04-23T01:13:12;12.20;99.90
2002;DHT22;1003;48.002;7.788;2023-04-23T01:15:40;12.10;99.90
2002;DHT22;1003;48.002;7.788;2023-04-23T01:18:08;12.10;99.90
2002;DHT22;1003;48.002;7.788;2023-04-23T01:20:36;12.10;99.90
2002;DHT22;1003;48.002;7.788;2023-04-23T01:23:05;12.00;99.90
2002;DHT22;1003;48.002;7.788;2023-04-23T01:25:33;11.90;99.90
2002;DHT22;1003;48.002;7.788;2023-04-23T01:28:00;11.90;99.90
2002;DHT22;1003;48.002;7.788;2023-04-23T01:30:28;11.80;99.90
2002;DHT22;1003;48.002;7.788;2023-04-23T01:32:56;11.80;99.90
2002;DHT22;1003;48.002;7.788;2023-04-23T01:35:24;11.80;99.90
2002;DHT22;1003;48.002;7.788;2023-04-23T01:37:52;11.80;99.90
2002;DHT22;1003;48.002;7.788;2023-04-23T01:40:23;11.70;99.90
2002;DHT22;1003;48.002;7.788;2023-04-23T01:42:50;11.80;99.90
2002;DHT22;1003;48.002;7.788;2023-04-23T01:45:17;11.80;99.90
2002;DHT22;1003;48.002;7.788;2023-04-23T01:47:45;11.70;99.90
2002;DHT22;1003;48.002;7.788;2023-04-23T01:50:12;11.70;99.90
2002;DHT22;1003;48.002;7.788;2023-04-23T01:52:40;11.60;99.90
2002;DHT22;1003;48.002;7.788;2023-04-23T01:55:09;11.50;99.90
2002;DHT22;1003;48.002;7.788;2023-04-23T01:57:37;11.50;99.90
2002;DHT22;1003;48.002;7.788;2023-04-23T02:00:07;11.50;99.90
2002;DHT22;1003;48.002;7.788;2023-04-23T02:02:40;11.50;99.90
2002;DHT22;1003;48.002;7.788;2023-04-23T02:05:10;11.50;99.90
2002;DHT22;1003;48.002;7.788;2023-04-23T02:07:38;11.40;99.90
2002;DHT22;1003;48.002;7.788;2023-04-23T02:10:07;11.30;99.90
2002;DHT22;1003;48.002;7.788;2023-04-23T02:12:36;11.40;99.90
2002;DHT22;1003;48.002;7.788;2023-04-23T02:15:05;11.40;99.90
2002;DHT22;1003;48.002;7.788;2023-04-23T02:17:34;11.40;99.90
2002;DHT22;1003;48.002;7.788;2023-04-23T02:20:01;11.50;99.90
2002;DHT22;1003;48.002;7.788;2023-04-23T02:22:28;11.40;99.90
2002;DHT22;1003;48.002;7.788;2023-04-23T02:24:56;11.40;99.90
2002;DHT22;1003;48.002;7.788;2023-04-23T02:27:24;11.40;99.90
2002;DHT22;1003;48.002;7.788;2023-04-23T02:29:53;11.30;99.90
2002;DHT22;1003;48.002;7.788;2023-04-23T02:32:20;11.30;99.90
2002;DHT22;1003;48.002;7.788;2023-04-23T02:34:47;11.30;99.90
2002;DHT22;1003;48.002;7.788;2023-04-23T02:37:14;11.30;99.90
2002;DHT22;1003;48.002;7.788;2023-04-23T02:39:41;11.30;99.90
2002;DHT22;1003;48.002;7.788;2023-04-23T02:42:08;11.40;99.90
2002;DHT22;1003;48.002;7.788;2023-04-23T02:44:35;11.40;99.90
2002;DHT22;1003;48.002;7.788;2023-04-23T02:47:04;11.40;99.90
2002;DHT22;1003;48.002;7.788;2023-04-23T02:49:31;11.30;99.90
2002;DHT22;1003;48.002;7.788;2023-04-23T02:51:58;11.20;99.90
2002;DHT22;1003;48.002;7.788;2023-04-23T02:54:25;11.20;99.90
2002;DHT22;1003;48.002;7.788;2023-04-23T02:56:52;11.20;99.90
2002;DHT22;1003;48.002;7.788;2023-04-23T02:59:21;11.10;99.90
2002;DHT22;1003;48.002;7.788;2023-04-23T03:01:48;11.10;99.90
2002;DHT22;1003;48.002;7.788;2023-04-23T03:04:17;11.10;99.90
2002;DHT22;1003;48.002;7.788;2023-04-23T03:06:44;11.10;99.90
2002;DHT22;1003;48.002;7.788;2023-04-23T03:09:12;11.10;99.90
2002;DHT22;1003;48.002;7.788;2023-04-23T03:11:39;11.10;99.90
2002;DHT22;1003;48.002;7.788;2023-04-23T03:14:06;11.10;99.90
2002;DHT22;1003;48.002;7.788;2023-04-23T03:16:34;11.10;99.90
2002;DHT22;1003;48.002;7.788;2023-04-23T03:19:01;11.20;99.90
2002;DHT22;1003;48.002;7.788;2023-04-23T03:21:29;11.10;99.90
2002;DHT22;1003;48.002;7.788;2023-04-23T03:23:56;11.20;99.90
2002;DHT22;1003;48.002;7.788;2023-04-23T03:26:23;11.30;99.90
2002;DHT22;1003;48.002;7.788;2023-04-23T03:28:50;11.20;99.90
2002;DHT22;1003;48.002;7.788;2023-04-23T03:31:17;11.30;99.90
2002;DHT22;1003;48.002;7.788;2023-04-23T03:33:44;11.50;99.90
2002;DHT22;1003;48.002;7.788;2023-04-23T03:36:11;11.50;99.90
2002;DHT22;1003;48.002;7.788;2023-04-23T03:38:41;11.50;99.90
2002;DHT22;1003;48.002;7.788;2023-04-23T03:41:08;11.60;99.90
2002;DHT22;1003;48.002;7.788;2023-04-23T03:43:35;11.60;99.90
2002;DHT22;1003;48.002;7.788;2023-04-23T03:46:02;11.70;99.90
2002;DHT22;1003;48.002;7.788;2023-04-23T03:48:29;11.70;99.90
2002;DHT22;1003;48.002;7.788;2023-04-23T03:50:57;11.60;99.90
2002;DHT22;1003;48.002;7.788;2023-04-23T03:53:24;11.50;99.90
2002;DHT22;1003;48.002;7.788;2023-04-23T03:55:52;11.40;99.90
2002;DHT22;1003;48.002;7.788;2023-04-23T03:58:19;11.30;99.90
2002;DHT22;1003;48.002;7.788;2023-04-23T04:00:47;11.30;99.90
2002;DHT22;1003;48.002;7.788;2023-04-23T04:03:14;11.20;99.90
2002;DHT22;1003;48.002;7.788;2023-04-23T04:05:41;11.20;99.90
2002;DHT22;1003;48.002;7.788;2023-04-23T04:08:09;11.20;99.90
2002;DHT22;1003;48.002;7.788;2023-04-23T04:10:36;11.10;99.90
2002;DHT22;1003;48.002;7.788;2023-04-23T04:13:04;11.10;99.90
2002;DHT22;1003;48.002;7.788;2023-04-23T04:15:31;11.10;99.90
2002;DHT22;1003;48.002;7.788;2023-04-23T04:17:58;11.10;99.90
2002;DHT22;1003;48.002;7.788;2023-04-23T04:20:26;11.10;99.90
2002;DHT22;1003;48.002;7.788;2023-04-23T04:22:54;11.10;99.90
2002;DHT22;1003;48.002;7.788;2023-04-23T04:25:21;11.00;99.90
2002;DHT22;1003;48.002;7.788;2023-04-23T04:27:48;11.00;99.90
2002;DHT22;1003;48.002;7.788;2023-04-23T04:30:17;11.00;99.90
2002;DHT22;1003;48.002;7.788;2023-04-23T04:32:44;11.00;99.90
2002;DHT22;1003;48.002;7.788;2023-04-23T04:35:11;11.00;99.90
2002;DHT22;1003;48.002;7.788;2023-04-23T04:37:39;11.00;99.90
2002;DHT22;1003;48.002;7.788;2023-04-23T04:40:07;11.00;99.90
2002;DHT22;1003;48.002;7.788;2023-04-23T04:42:35;11.00;99.90
2002;DHT22;1003;48.002;7.788;2023-04-23T04:45:04;10.90;99.90
2002;DHT22;1003;48.002;7.788;2023-04-23T04:47:34;10.90;99.90
2002;DHT22;1003;48.002;7.788;2023-04-23T04:50:01;10.90;99.90
2002;DHT22;1003;48.002;7.788;2023-04-23T04:52:29;10.90;99.90
2002;DHT22;1003;48.002;7.788;2023-04-23T04:54:56;10.90;99.90
2002;DHT22;1003;48.002;7.788;2023-04-23T04:57:23;10.90;99.90
2002;DHT22;1003;48.002;7.788;2023-04-23T04:59:50;11.00;99.90
2002;DHT22;1003;48.002;7.788;2023-04-23T05:02:18;11.00;99.90
2002;DHT22;1003;48.002;7.788;2023-04-23T05:04:49;11.10;99.90
2002;DHT22;1003;48.002;7.788;2023-04-23T05:07:16;11.20;99.90
2002;DHT22;1003;48.002;7.788;2023-04-23T05:09:43;11.30;99.90
2002;DHT22;1003;48.002;7.788;2023-04-23T05:12:10;11.40;99.90
2002;DHT22;1003;48.002;7.788;2023-04-23T05:14:38;11.60;99.90
2002;DHT22;1003;48.002;7.788;2023-04-23T05:17:04;11.80;99.90
2002;DHT22;1003;48.002;7.788;2023-04-23T05:19:31;11.90;99.90
2002;DHT22;1003;48.002;7.788;2023-04-23T05:22:00;12.00;99.90
2002;DHT22;1003;48.002;7.788;2023-04-23T05:24:28;12.00;99.90
2002;DHT22;1003;48.002;7.788;2023-04-23T05:26:55;12.10;99.90
2002;DHT22;1003;48.002;7.788;2023-04-23T05:29:22;12.00;99.90
2002;DHT22;1003;48.002;7.788;2023-04-23T05:31:49;12.10;99.90
2002;DHT22;1003;48.002;7.788;2023-04-23T05:34:16;12.20;99.90
2002;DHT22;1003;48.002;7.788;2023-04-23T05:36:43;12.30;99.90
2002;DHT22;1003;48.002;7.788;2023-04-23T05:39:12;12.40;99.90
2002;DHT22;1003;48.002;7.788;2023-04-23T05:41:39;12.60;99.90
2002;DHT22;1003;48.002;7.788;2023-04-23T05:44:06;12.70;99.90
2002;DHT22;1003;48.002;7.788;2023-04-23T05:46:33;12.80;99.90
2002;DHT22;1003;48.002;7.788;2023-04-23T05:49:01;12.90;99.90
2002;DHT22;1003;48.002;7.788;2023-04-23T05:51:29;13.20;99.90
2002;DHT22;1003;48.002;7.788;2023-04-23T05:53:56;13.40;99.90
2002;DHT22;1003;48.002;7.788;2023-04-23T05:56:25;13.80;99.90
2002;DHT22;1003;48.002;7.788;2023-04-23T05:58:52;13.90;99.90
2002;DHT22;1003;48.002;7.788;2023-04-23T06:01:20;14.20;99.90
2002;DHT22;1003;48.002;7.788;2023-04-23T06:03:47;14.30;99.90
2002;DHT22;1003;48.002;7.788;2023-04-23T06:06:14;14.70;99.90
2002;DHT22;1003;48.002;7.788;2023-04-23T06:08:41;15.10;99.90
2002;DHT22;1003;48.002;7.788;2023-04-23T06:11:08;15.40;99.90
2002;DHT22;1003;48.002;7.788;2023-04-23T06:13:36;15.40;99.90
2002;DHT22;1003;48.002;7.788;2023-04-23T06:16:05;15.20;99.90
2002;DHT22;1003;48.002;7.788;2023-04-23T06:18:33;15.20;99.90
2002;DHT22;1003;48.002;7.788;2023-04-23T06:21:00;15.60;99.90
2002;DHT22;1003;48.002;7.788;2023-04-23T06:23:28;15.90;99.90
2002;DHT22;1003;48.002;7.788;2023-04-23T06:25:56;15.80;99.90
2002;DHT22;1003;48.002;7.788;2023-04-23T06:28:23;15.70;99.90
2002;DHT22;1003;48.002;7.788;2023-04-23T06:30:51;15.60;99.90
2002;DHT22;1003;48.002;7.788;2023-04-23T06:33:18;15.70;99.90
2002;DHT22;1003;48.002;7.788;2023-04-23T06:35:45;15.70;99.90
2002;DHT22;1003;48.002;7.788;2023-04-23T06:38:12;15.70;99.90
2002;DHT22;1003;48.002;7.788;2023-04-23T06:40:39;15.70;99.90
2002;DHT22;1003;48.002;7.788;2023-04-23T06:43:07;15.90;99.90
2002;DHT22;1003;48.002;7.788;2023-04-23T06:45:34;16.10;99.90
2002;DHT22;1003;48.002;7.788;2023-04-23T06:48:03;16.40;99.90
2002;DHT22;1003;48.002;7.788;2023-04-23T06:50:30;16.60;99.90
2002;DHT22;1003;48.002;7.788;2023-04-23T06:52:57;16.80;99.90
2002;DHT22;1003;48.002;7.788;2023-04-23T06:55:24;17.10;99.90
2002;DHT22;1003;48.002;7.788;2023-04-23T06:57:51;17.10;99.90
2002;DHT22;1003;48.002;7.788;2023-04-23T07:00:19;17.20;99.90
2002;DHT22;1003;48.002;7.788;2023-04-23T07:02:47;17.30;99.90
2002;DHT22;1003;48.002;7.788;2023-04-23T07:05:16;17.50;99.90
2002;DHT22;1003;48.002;7.788;2023-04-23T07:07:43;17.80;99.90
2002;DHT22;1003;48.002;7.788;2023-04-23T07:10:10;17.90;99.90
2002;DHT22;1003;48.002;7.788;2023-04-23T07:12:38;18.10;99.90
2002;DHT22;1003;48.002;7.788;2023-04-23T07:15:06;18.20;99.90
2002;DHT22;1003;48.002;7.788;2023-04-23T07:17:34;18.30;99.90
2002;DHT22;1003;48.002;7.788;2023-04-23T07:20:01;18.20;99.90
2002;DHT22;1003;48.002;7.788;2023-04-23T07:22:32;18.30;99.90
2002;DHT22;1003;48.002;7.788;2023-04-23T07:24:59;18.10;99.90
2002;DHT22;1003;48.002;7.788;2023-04-23T07:27:27;18.10;99.90
2002;DHT22;1003;48.002;7.788;2023-04-23T07:29:54;17.90;99.90
2002;DHT22;1003;48.002;7.788;2023-04-23T07:32:21;18.20;99.90
2002;DHT22;1003;48.002;7.788;2023-04-23T07:34:52;18.20;99.90
2002;DHT22;1003;48.002;7.788;2023-04-23T07:37:20;18.20;99.90
2002;DHT22;1003;48.002;7.788;2023-04-23T07:39:49;18.40;99.90
2002;DHT22;1003;48.002;7.788;2023-04-23T07:42:16;18.20;99.90
2002;DHT22;1003;48.002;7.788;2023-04-23T07:44:43;18.20;99.90
2002;DHT22;1003;48.002;7.788;2023-04-23T07:47:10;18.60;99.90
2002;DHT22;1003;48.002;7.788;2023-04-23T07:49:37;18.90;99.90
2002;DHT22;1003;48.002;7.788;2023-04-23T07:52:04;19.00;99.90
2002;DHT22;1003;48.002;7.788;2023-04-23T07:54:31;19.10;99.90
2002;DHT22;1003;48.002;7.788;2023-04-23T07:56:59;19.20;99.90
2002;DHT22;1003;48.002;7.788;2023-04-23T07:59:27;19.50;99.90
2002;DHT22;1003;48.002;7.788;2023-04-23T08:01:54;19.70;99.90
2002;DHT22;1003;48.002;7.788;2023-04-23T08:04:22;19.70;99.90
2002;DHT22;1003;48.002;7.788;2023-04-23T08:06:49;19.80;99.90
2002;DHT22;1003;48.002;7.788;2023-04-23T08:09:16;19.60;99.90
2002;DHT22;1003;48.002;7.788;2023-04-23T08:11:43;19.40;99.90
2002;DHT22;1003;48.002;7.788;2023-04-23T08:14:12;19.10;99.90
2002;DHT22;1003;48.002;7.788;2023-04-23T08:16:39;19.50;99.90
2002;DHT22;1003;48.002;7.788;2023-04-23T08:19:06;19.90;99.90
2002;DHT22;1003;48.002;7.788;2023-04-23T08:21:33;19.60;99.90
2002;DHT22;1003;48.002;7.788;2023-04-23T08:24:00;19.70;99.90
2002;DHT22;1003;48.002;7.788;2023-04-23T08:26:28;19.70;99.90
2002;DHT22;1003;48.002;7.788;2023-04-23T08:28:56;19.90;99.90
2002;DHT22;1003;48.002;7.788;2023-04-23T08:31:26;20.40;99.90
2002;DHT22;1003;48.002;7.788;2023-04-23T08:33:53;20.20;99.90
2002;DHT22;1003;48.002;7.788;2023-04-23T08:36:21;20.20;99.90
2002;DHT22;1003;48.002;7.788;2023-04-23T08:38:48;20.40;99.90
2002;DHT22;1003;48.002;7.788;2023-04-23T08:41:17;20.30;99.90
2002;DHT22;1003;48.002;7.788;2023-04-23T08:43:51;20.60;99.90
2002;DHT22;1003;48.002;7.788;2023-04-23T08:46:30;20.40;99.90
2002;DHT22;1003;48.002;7.788;2023-04-23T08:49:01;20.20;99.90
2002;DHT22;1003;48.002;7.788;2023-04-23T08:51:37;20.30;99.90
2002;DHT22;1003;48.002;7.788;2023-04-23T08:54:11;20.50;99.90
2002;DHT22;1003;48.002;7.788;2023-04-23T08:56:41;20.70;99.90
2002;DHT22;1003;48.002;7.788;2023-04-23T08:59:10;20.70;99.90
2002;DHT22;1003;48.002;7.788;2023-04-23T09:01:40;20.90;99.90
2002;DHT22;1003;48.002;7.788;2023-04-23T09:04:08;20.60;99.90
2002;DHT22;1003;48.002;7.788;2023-04-23T09:06:36;20.80;99.90
2002;DHT22;1003;48.002;7.788;2023-04-23T09:09:05;21.10;99.90
2002;DHT22;1003;48.002;7.788;2023-04-23T09:11:35;21.00;99.90
2002;DHT22;1003;48.002;7.788;2023-04-23T09:14:03;21.00;99.90
2002;DHT22;1003;48.002;7.788;2023-04-23T09:16:30;20.90;99.90
2002;DHT22;1003;48.002;7.788;2023-04-23T09:18:59;20.80;99.90
2002;DHT22;1003;48.002;7.788;2023-04-23T09:21:27;20.80;99.90
2002;DHT22;1003;48.002;7.788;2023-04-23T09:23:54;20.70;99.90
2002;DHT22;1003;48.002;7.788;2023-04-23T09:26:22;21.00;99.90
2002;DHT22;1003;48.002;7.788;2023-04-23T09:28:49;21.10;99.90
2002;DHT22;1003;48.002;7.788;2023-04-23T09:31:20;21.20;99.90
2002;DHT22;1003;48.002;7.788;2023-04-23T09:33:51;21.20;99.90
2002;DHT22;1003;48.002;7.788;2023-04-23T09:36:22;21.20;99.90
2002;DHT22;1003;48.002;7.788;2023-04-23T09:38:51;20.80;99.90
2002;DHT22;1003;48.002;7.788;2023-04-23T09:41:23;20.70;99.90
2002;DHT22;1003;48.002;7.788;2023-04-23T09:43:52;20.90;99.90
2002;DHT22;1003;48.002;7.788;2023-04-23T09:46:32;20.90;99.90
2002;DHT22;1003;48.002;7.788;2023-04-23T09:49:01;21.30;99.90
2002;DHT22;1003;48.002;7.788;2023-04-23T09:51:30;21.50;99.90
2002;DHT22;1003;48.002;7.788;2023-04-23T09:53:58;21.50;99.90
2002;DHT22;1003;48.002;7.788;2023-04-23T09:56:27;22.00;99.90
2002;DHT22;1003;48.002;7.788;2023-04-23T09:58:57;21.60;99.90
2002;DHT22;1003;48.002;7.788;2023-04-23T10:01:28;21.60;99.90
2002;DHT22;1003;48.002;7.788;2023-04-23T10:03:55;21.80;99.90
2002;DHT22;1003;48.002;7.788;2023-04-23T10:06:31;21.90;99.90
2002;DHT22;1003;48.002;7.788;2023-04-23T10:08:58;21.90;99.90
2002;DHT22;1003;48.002;7.788;2023-04-23T10:11:26;21.60;99.90
2002;DHT22;1003;48.002;7.788;2023-04-23T10:13:54;21.20;99.90
2002;DHT22;1003;48.002;7.788;2023-04-23T10:16:21;20.80;99.90
2002;DHT22;1003;48.002;7.788;2023-04-23T10:18:50;20.60;99.90
2002;DHT22;1003;48.002;7.788;2023-04-23T10:21:19;20.60;99.90
2002;DHT22;1003;48.002;7.788;2023-04-23T10:23:52;20.80;99.90
2002;DHT22;1003;48.002;7.788;2023-04-23T10:26:22;21.20;99.90
2002;DHT22;1003;48.002;7.788;2023-04-23T10:28:53;20.70;99.90
2002;DHT22;1003;48.002;7.788;2023-04-23T10:31:20;20.70;99.90
2002;DHT22;1003;48.002;7.788;2023-04-23T10:33:49;20.90;99.90
2002;DHT22;1003;48.002;7.788;2023-04-23T10:36:16;21.00;99.90
2002;DHT22;1003;48.002;7.788;2023-04-23T10:38:44;21.00;99.90
2002;DHT22;1003;48.002;7.788;2023-04-23T10:41:16;21.30;99.90
2002;DHT22;1003;48.002;7.788;2023-04-23T10:43:49;21.40;99.90
2002;DHT22;1003;48.002;7.788;2023-04-23T10:46:27;21.40;99.90
2002;DHT22;1003;48.002;7.788;2023-04-23T10:49:09;21.30;99.90
2002;DHT22;1003;48.002;7.788;2023-04-23T10:51:40;21.50;99.90
2002;DHT22;1003;48.002;7.788;2023-04-23T10:54:08;21.30;99.90
2002;DHT22;1003;48.002;7.788;2023-04-23T10:56:41;20.90;99.90
2002;DHT22;1003;48.002;7.788;2023-04-23T10:59:17;21.00;99.90
2002;DHT22;1003;48.002;7.788;2023-04-23T11:01:46;21.10;99.90
2002;DHT22;1003;48.002;7.788;2023-04-23T11:04:19;21.30;99.90
2002;DHT22;1003;48.002;7.788;2023-04-23T11:06:52;21.20;99.90
2002;DHT22;1003;48.002;7.788;2023-04-23T11:09:31;21.20;99.90
2002;DHT22;1003;48.002;7.788;2023-04-23T11:12:07;21.20;99.90
2002;DHT22;1003;48.002;7.788;2023-04-23T11:14:42;21.30;99.90
2002;DHT22;1003;48.002;7.788;2023-04-23T11:17:12;21.60;99.90
2002;DHT22;1003;48.002;7.788;2023-04-23T11:19:41;21.50;99.90
2002;DHT22;1003;48.002;7.788;2023-04-23T11:22:33;21.50;99.90
2002;DHT22;1003;48.002;7.788;2023-04-23T11:25:01;21.40;99.90
2002;DHT22;1003;48.002;7.788;2023-04-23T11:27:31;21.40;99.90
2002;DHT22;1003;48.002;7.788;2023-04-23T11:29:58;21.70;99.90
2002;DHT22;1003;48.002;7.788;2023-04-23T11:32:27;21.60;99.90
2002;DHT22;1003;48.002;7.788;2023-04-23T11:34:54;21.70;99.90
2002;DHT22;1003;48.002;7.788;2023-04-23T11:37:24;21.90;99.90
2002;DHT22;1003;48.002;7.788;2023-04-23T11:39:51;21.90;99.90
2002;DHT22;1003;48.002;7.788;2023-04-23T11:42:18;21.90;99.90
2002;DHT22;1003;48.002;7.788;2023-04-23T11:44:48;22.00;99.90
2002;DHT22;1003;48.002;7.788;2023-04-23T11:47:15;22.10;99.90
2002;DHT22;1003;48.002;7.788;2023-04-23T11:49:43;22.00;99.90
2002;DHT22;1003;48.002;7.788;2023-04-23T11:52:11;22.30;99.90
2002;DHT22;1003;48.002;7.788;2023-04-23T11:54:40;22.30;99.90
2002;DHT22;1003;48.002;7.788;2023-04-23T11:57:08;22.10;99.90
2002;DHT22;1003;48.002;7.788;2023-04-23T11:59:35;22.20;99.90
2002;DHT22;1003;48.002;7.788;2023-04-23T12:02:04;22.30;99.90
2002;DHT22;1003;48.002;7.788;2023-04-23T12:04:31;22.60;99.90
2002;DHT22;1003;48.002;7.788;2023-04-23T12:06:59;22.20;99.90
2002;DHT22;1003;48.002;7.788;2023-04-23T12:09:28;22.10;99.90
2002;DHT22;1003;48.002;7.788;2023-04-23T12:11:55;22.30;99.90
2002;DHT22;1003;48.002;7.788;2023-04-23T12:14:26;22.50;99.90
2002;DHT22;1003;48.002;7.788;2023-04-23T12:16:54;22.60;99.90
2002;DHT22;1003;48.002;7.788;2023-04-23T12:19:27;22.80;99.90
2002;DHT22;1003;48.002;7.788;2023-04-23T12:21:57;22.90;99.90
2002;DHT22;1003;48.002;7.788;2023-04-23T12:24:26;23.20;99.90
2002;DHT22;1003;48.002;7.788;2023-04-23T12:26:57;23.00;99.90
2002;DHT22;1003;48.002;7.788;2023-04-23T12:29:29;23.60;99.90
2002;DHT22;1003;48.002;7.788;2023-04-23T12:31:58;23.60;99.90
2002;DHT22;1003;48.002;7.788;2023-04-23T12:34:27;23.60;99.90
2002;DHT22;1003;48.002;7.788;2023-04-23T12:36:55;23.80;99.90
2002;DHT22;1003;48.002;7.788;2023-04-23T12:39:24;23.80;99.90
2002;DHT22;1003;48.002;7.788;2023-04-23T12:41:56;23.80;99.90
2002;DHT22;1003;48.002;7.788;2023-04-23T12:44:26;24.00;99.90
2002;DHT22;1003;48.002;7.788;2023-04-23T12:46:57;24.20;99.90
2002;DHT22;1003;48.002;7.788;2023-04-23T12:49:29;24.20;99.90
2002;DHT22;1003;48.002;7.788;2023-04-23T12:51:58;24.10;99.90
2002;DHT22;1003;48.002;7.788;2023-04-23T12:54:28;24.10;99.90
2002;DHT22;1003;48.002;7.788;2023-04-23T12:56:56;24.20;99.90
2002;DHT22;1003;48.002;7.788;2023-04-23T12:59:23;24.10;99.90
2002;DHT22;1003;48.002;7.788;2023-04-23T13:01:51;23.80;99.90
2002;DHT22;1003;48.002;7.788;2023-04-23T13:04:19;24.20;99.90
2002;DHT22;1003;48.002;7.788;2023-04-23T13:06:50;23.90;99.90
2002;DHT22;1003;48.002;7.788;2023-04-23T13:09:20;24.00;99.90
2002;DHT22;1003;48.002;7.788;2023-04-23T13:11:49;23.90;99.90
2002;DHT22;1003;48.002;7.788;2023-04-23T13:14:16;24.00;99.90
2002;DHT22;1003;48.002;7.788;2023-04-23T13:16:44;24.40;99.90
2002;DHT22;1003;48.002;7.788;2023-04-23T13:19:11;24.30;99.90
2002;DHT22;1003;48.002;7.788;2023-04-23T13:21:38;24.00;99.90
2002;DHT22;1003;48.002;7.788;2023-04-23T13:24:07;24.40;99.90
2002;DHT22;1003;48.002;7.788;2023-04-23T13:26:34;24.00;99.90
2002;DHT22;1003;48.002;7.788;2023-04-23T13:29:02;24.30;99.90
2002;DHT22;1003;48.002;7.788;2023-04-23T13:31:30;24.50;99.90
2002;DHT22;1003;48.002;7.788;2023-04-23T13:33:58;24.50;99.90
2002;DHT22;1003;48.002;7.788;2023-04-23T13:36:25;24.60;99.90
2002;DHT22;1003;48.002;7.788;2023-04-23T13:38:53;24.90;99.90
2002;DHT22;1003;48.002;7.788;2023-04-23T13:41:21;24.90;99.90
2002;DHT22;1003;48.002;7.788;2023-04-23T13:43:48;24.80;99.90
2002;DHT22;1003;48.002;7.788;2023-04-23T13:46:15;24.90;99.90
2002;DHT22;1003;48.002;7.788;2023-04-23T13:48:44;25.00;99.90
2002;DHT22;1003;48.002;7.788;2023-04-23T13:51:13;24.80;99.90
2002;DHT22;1003;48.002;7.788;2023-04-23T13:53:42;24.40;99.90
2002;DHT22;1003;48.002;7.788;2023-04-23T13:56:11;24.30;99.90
2002;DHT22;1003;48.002;7.788;2023-04-23T13:58:40;24.30;99.90
2002;DHT22;1003;48.002;7.788;2023-04-23T14:01:09;24.00;99.90
2002;DHT22;1003;48.002;7.788;2023-04-23T14:03:38;24.20;99.90
2002;DHT22;1003;48.002;7.788;2023-04-23T14:06:06;24.30;99.90
2002;DHT22;1003;48.002;7.788;2023-04-23T14:08:33;24.10;99.90
2002;DHT22;1003;48.002;7.788;2023-04-23T14:11:01;23.80;99.90
2002;DHT22;1003;48.002;7.788;2023-04-23T14:13:29;23.50;99.90
2002;DHT22;1003;48.002;7.788;2023-04-23T14:15:58;23.00;99.90
2002;DHT22;1003;48.002;7.788;2023-04-23T14:18:25;22.60;99.90
2002;DHT22;1003;48.002;7.788;2023-04-23T14:20:52;22.40;99.90
2002;DHT22;1003;48.002;7.788;2023-04-23T14:23:44;22.00;99.90
2002;DHT22;1003;48.002;7.788;2023-04-23T14:26:22;21.60;99.90
2002;DHT22;1003;48.002;7.788;2023-04-23T14:28:56;21.10;99.90
2002;DHT22;1003;48.002;7.788;2023-04-23T14:31:29;20.60;99.90
2002;DHT22;1003;48.002;7.788;2023-04-23T14:33:56;20.20;99.90
2002;DHT22;1003;48.002;7.788;2023-04-23T14:36:24;19.70;99.90
2002;DHT22;1003;48.002;7.788;2023-04-23T14:38:51;19.50;99.90
2002;DHT22;1003;48.002;7.788;2023-04-23T14:41:18;19.30;99.90
2002;DHT22;1003;48.002;7.788;2023-04-23T14:43:45;19.30;99.90
2002;DHT22;1003;48.002;7.788;2023-04-23T14:46:12;19.00;99.90
2002;DHT22;1003;48.002;7.788;2023-04-23T14:48:41;18.80;99.90
2002;DHT22;1003;48.002;7.788;2023-04-23T14:51:08;19.00;99.90
2002;DHT22;1003;48.002;7.788;2023-04-23T14:53:36;19.10;99.90
2002;DHT22;1003;48.002;7.788;2023-04-23T14:56:03;18.90;99.90
2002;DHT22;1003;48.002;7.788;2023-04-23T14:58:30;19.00;99.90
2002;DHT22;1003;48.002;7.788;2023-04-23T15:00:57;18.80;99.90
2002;DHT22;1003;48.002;7.788;2023-04-23T15:03:25;19.00;99.90
2002;DHT22;1003;48.002;7.788;2023-04-23T15:05:53;19.30;99.90
2002;DHT22;1003;48.002;7.788;2023-04-23T15:08:20;19.60;99.90
2002;DHT22;1003;48.002;7.788;2023-04-23T15:10:47;19.50;99.90
2002;DHT22;1003;48.002;7.788;2023-04-23T15:13:38;19.50;99.90
2002;DHT22;1003;48.002;7.788;2023-04-23T15:16:18;19.90;99.90
2002;DHT22;1003;48.002;7.788;2023-04-23T15:18:51;20.20;99.90
2002;DHT22;1003;48.002;7.788;2023-04-23T15:21:19;20.20;99.90
2002;DHT22;1003;48.002;7.788;2023-04-23T15:23:46;20.10;99.90
2002;DHT22;1003;48.002;7.788;2023-04-23T15:26:15;20.10;99.90
2002;DHT22;1003;48.002;7.788;2023-04-23T15:28:42;19.90;99.90
2002;DHT22;1003;48.002;7.788;2023-04-23T15:31:10;20.00;99.90
2002;DHT22;1003;48.002;7.788;2023-04-23T15:33:37;19.90;99.90
2002;DHT22;1003;48.002;7.788;2023-04-23T15:36:06;19.90;99.90
2002;DHT22;1003;48.002;7.788;2023-04-23T15:38:36;19.70;99.90
2002;DHT22;1003;48.002;7.788;2023-04-23T15:41:03;19.40;99.90
2002;DHT22;1003;48.002;7.788;2023-04-23T15:43:31;19.40;99.90
2002;DHT22;1003;48.002;7.788;2023-04-23T15:46:00;19.10;99.90
2002;DHT22;1003;48.002;7.788;2023-04-23T15:48:27;19.10;99.90
2002;DHT22;1003;48.002;7.788;2023-04-23T15:50:54;19.00;99.90
2002;DHT22;1003;48.002;7.788;2023-04-23T15:53:22;18.80;99.90
2002;DHT22;1003;48.002;7.788;2023-04-23T15:55:51;18.50;99.90
2002;DHT22;1003;48.002;7.788;2023-04-23T15:58:18;18.40;99.90
2002;DHT22;1003;48.002;7.788;2023-04-23T16:00:46;18.30;99.90
2002;DHT22;1003;48.002;7.788;2023-04-23T16:03:13;18.40;99.90
2002;DHT22;1003;48.002;7.788;2023-04-23T16:05:40;18.40;99.90
2002;DHT22;1003;48.002;7.788;2023-04-23T16:08:08;18.30;99.90
2002;DHT22;1003;48.002;7.788;2023-04-23T16:10:37;18.20;99.90